Time;durP1;ratioP1;P1;durP2;ratioP2;P2;SDS_P1;SDS_P2;PMS_P1;PMS_P2;Temp;Humidity;BMP_temperature;BMP_pressure;BME280_temperature;BME280_humidity;BME280_pressure;Samples;Min_cycle;Max_cycle;Signal;HPM_P1;HPM_P2
2022/12/18 00:01:53;;;;;;;47.13;21.40;;;;;;;-1.08;62.08;101862.78;4926457;28;100913;-89
2022/12/18 00:04:21;;;;;;;44.27;20.27;;;;;;;-1.06;62.44;101872.34;4933593;28;97116;-85
2022/12/18 00:06:47;;;;;;;51.03;21.53;;;;;;;-1.06;62.19;101876.63;4949615;28;96889;-89
2022/12/18 00:09:13;;;;;;;50.70;21.97;;;;;;;-1.07;62.16;101865.44;4900930;28;101210;-89
2022/12/18 00:11:38;;;;;;;46.17;20.17;;;;;;;-1.11;62.41;101857.50;4949403;28;100603;-84
2022/12/18 00:14:04;;;;;;;46.37;20.67;;;;;;;-1.12;62.29;101861.78;4946956;28;97340;-84
2022/12/18 00:16:35;;;;;;;38.53;18.57;;;;;;;-1.08;62.18;101868.81;4917691;28;97102;-88
2022/12/18 00:19:00;;;;;;;40.63;18.10;;;;;;;-1.09;62.42;101864.50;4911335;28;100960;-86
2022/12/18 00:21:27;;;;;;;36.60;18.27;;;;;;;-1.21;62.48;101851.13;4932927;28;100750;-88
2022/12/18 00:23:53;;;;;;;37.13;18.80;;;;;;;-1.12;62.54;101861.78;4919048;28;97108;-87
2022/12/18 00:26:27;;;;;;;39.37;19.13;;;;;;;-1.18;62.84;101861.56;4934364;28;96980;-85
2022/12/18 00:29:01;;;;;;;38.43;17.40;;;;;;;-1.13;62.40;101870.34;4930304;28;99902;-86
2022/12/18 00:31:27;;;;;;;46.93;19.87;;;;;;;-1.09;62.99;101892.84;4916868;28;101105;-86
2022/12/18 00:33:56;;;;;;;40.43;19.67;;;;;;;-1.14;62.44;101877.19;4927055;28;98145;-89
2022/12/18 00:36:31;;;;;;;40.90;19.43;;;;;;;-1.05;62.59;101899.00;4920226;28;96908;-89
2022/12/18 00:38:58;;;;;;;38.83;17.40;;;;;;;-1.06;62.81;101900.69;4948628;28;99932;-89
2022/12/18 00:44:11;;;;;;;39.27;18.60;;;;;;;-1.08;62.58;101904.91;4946573;28;96771;-88
2022/12/18 00:46:36;;;;;;;42.40;19.50;;;;;;;-1.08;62.65;101910.06;4965767;28;96835;-85
2022/12/18 00:49:03;;;;;;;40.50;17.77;;;;;;;-1.13;62.51;101901.28;4920412;28;98683;-88
2022/12/18 00:51:28;;;;;;;42.63;19.77;;;;;;;-1.19;62.79;101891.63;4950414;28;101561;-85
2022/12/18 00:53:54;;;;;;;42.80;19.50;;;;;;;-1.09;62.99;101917.75;4931451;28;97159;-88
2022/12/18 00:56:19;;;;;;;42.53;19.83;;;;;;;-1.27;62.96;101900.75;4905295;28;97127;-85
2022/12/18 00:58:45;;;;;;;43.87;19.77;;;;;;;-1.18;63.24;101924.28;4915946;28;101396;-89
2022/12/18 01:01:11;;;;;;;40.70;18.77;;;;;;;-1.14;62.58;101925.28;4931080;28;98475;-88
2022/12/18 01:03:36;;;;;;;45.07;19.47;;;;;;;-1.11;62.56;101929.69;4936005;28;97132;-87
2022/12/18 01:06:07;;;;;;;47.87;21.70;;;;;;;-1.24;62.99;101912.88;4932347;28;96787;-86
2022/12/18 01:08:32;;;;;;;44.27;18.87;;;;;;;-1.11;62.60;101940.88;4927997;28;99888;-90
2022/12/18 01:10:58;;;;;;;37.93;17.93;;;;;;;-1.18;63.13;101929.44;4931159;28;101892;-87
2022/12/18 01:13:24;;;;;;;36.63;16.97;;;;;;;-1.17;63.04;101931.19;4945307;28;96782;-88
2022/12/18 01:15:50;;;;;;;35.53;16.57;;;;;;;-1.18;63.22;101942.34;4931865;28;97220;-88
2022/12/18 01:18:16;;;;;;;41.60;19.00;;;;;;;-1.16;63.02;101955.28;4932362;28;101248;-84
2022/12/18 01:20:41;;;;;;;38.70;18.90;;;;;;;-1.12;63.26;101956.28;4910370;28;100382;-81
2022/12/18 01:23:07;;;;;;;44.77;19.30;;;;;;;-1.11;62.99;101958.03;4937457;28;96733;-86
2022/12/18 01:25:33;;;;;;;37.77;18.57;;;;;;;-1.13;62.74;101965.72;4925180;28;97487;-86
2022/12/18 01:27:58;;;;;;;40.83;18.20;;;;;;;-1.11;63.10;101964.06;4913615;28;101797;-87
2022/12/18 01:30:24;;;;;;;40.20;16.83;;;;;;;-1.35;63.05;101914.13;4942555;28;97380;-87
2022/12/18 01:32:52;;;;;;;36.93;17.13;;;;;;;-1.09;63.38;101969.28;4916869;28;97488;-85
2022/12/18 01:35:18;;;;;;;41.93;18.73;;;;;;;-1.11;63.08;101966.63;4937112;28;97394;-85
2022/12/18 01:37:45;;;;;;;36.97;17.60;;;;;;;-1.06;62.80;101969.41;4949353;28;100751;-87
2022/12/18 01:40:11;;;;;;;40.37;17.43;;;;;;;-1.05;62.90;101971.16;4932293;28;100805;-86
2022/12/18 01:42:38;;;;;;;41.90;19.50;;;;;;;-1.23;62.87;101942.97;4931334;28;97100;-82
2022/12/18 01:45:03;;;;;;;39.57;19.33;;;;;;;-1.08;62.93;101971.03;4942179;28;97774;-90
2022/12/18 01:47:29;;;;;;;36.63;18.13;;;;;;;-1.08;63.52;101969.34;4930926;28;101122;-89
2022/12/18 01:49:56;;;;;;;34.70;16.87;;;;;;;-1.05;63.18;101974.63;4931617;28;98257;-89
2022/12/18 01:52:22;;;;;;;41.50;17.93;;;;;;;-1.19;63.41;101947.44;4942829;28;97389;-89
2022/12/18 01:54:49;;;;;;;38.07;17.23;;;;;;;-1.10;63.22;101967.53;4942248;28;97642;-90
2022/12/18 01:57:15;;;;;;;38.07;17.67;;;;;;;-1.08;63.29;101971.91;4931972;28;101459;-89
2022/12/18 01:59:42;;;;;;;38.20;17.73;;;;;;;-1.06;63.27;101987.47;4891379;28;100917;-83
2022/12/18 02:02:07;;;;;;;38.83;17.33;;;;;;;-1.11;62.59;101978.66;4928214;28;96852;-88
2022/12/18 02:04:33;;;;;;;38.60;17.73;;;;;;;-1.14;63.13;101969.09;4908575;28;97207;-87
2022/12/18 02:07:21;;;;;;;43.37;18.83;;;;;;;-1.07;63.11;101972.81;4935139;28;101624;-89
2022/12/18 02:10:04;;;;;;;37.53;16.17;;;;;;;-1.08;63.16;101991.66;4912607;28;101925;-88
2022/12/18 02:12:45;;;;;;;40.47;17.80;;;;;;;-1.13;63.44;101986.34;4946365;28;97125;-85
2022/12/18 02:15:44;;;;;;;34.97;15.70;;;;;;;-1.11;63.47;101992.41;4912064;28;98139;-90
2022/12/18 02:18:21;;;;;;;39.27;16.77;;;;;;;-1.11;62.79;101984.69;4912799;28;99851;-87
2022/12/18 02:20:55;;;;;;;34.80;16.30;;;;;;;-1.14;63.50;101980.28;4931045;28;101501;-87
2022/12/18 02:23:30;;;;;;;35.63;15.83;;;;;;;-1.07;63.08;101990.88;4919750;28;96732;-86
2022/12/18 02:26:04;;;;;;;41.77;18.10;;;;;;;-1.08;63.00;101991.66;4923758;28;97392;-86
2022/12/18 02:28:33;;;;;;;33.60;15.73;;;;;;;-1.07;63.38;101996.03;4935744;28;100624;-85
2022/12/18 02:31:04;;;;;;;36.95;16.58;;;;;;;-1.09;63.23;101995.94;4923449;28;101133;-85
2022/12/18 02:33:32;;;;;;;35.80;16.43;;;;;;;-1.06;63.27;101997.75;4907031;28;97210;-86
2022/12/18 02:35:58;;;;;;;29.23;14.53;;;;;;;-1.04;62.98;102001.28;4927361;28;97468;-87
2022/12/18 02:38:25;;;;;;;38.60;16.70;;;;;;;-1.04;62.74;102001.28;4926306;28;101302;-89
2022/12/18 02:40:53;;;;;;;32.93;14.97;;;;;;;-1.14;62.82;101990.59;4931325;28;100056;-84
2022/12/18 02:43:19;;;;;;;32.20;14.87;;;;;;;-0.99;62.42;102022.97;4919883;28;96840;-84
2022/12/18 02:45:54;;;;;;;39.20;17.27;;;;;;;-1.05;62.75;102018.44;4933774;28;96831;-88
2022/12/18 02:48:23;;;;;;;31.47;15.70;;;;;;;-1.00;62.49;102023.78;4929952;28;100351;-87
2022/12/18 02:51:16;;;;;;;36.37;15.63;;;;;;;-1.08;62.61;102007.13;4935455;28;98252;-89
2022/12/18 02:53:53;;;;;;;30.33;14.90;;;;;;;-1.05;62.42;102013.28;4913832;28;98420;-81
2022/12/18 02:56:33;;;;;;;34.10;15.70;;;;;;;-1.06;62.50;102018.38;4914691;28;97333;-84
2022/12/18 02:59:06;;;;;;;34.93;15.80;;;;;;;-1.05;62.39;102013.28;4947726;28;101349;-88
2022/12/18 03:01:52;;;;;;;40.25;16.00;;;;;;;-1.07;62.53;102007.22;4904075;28;99854;-86
2022/12/18 03:04:30;;;;;;;40.27;16.53;;;;;;;-1.04;62.17;102011.59;4928842;28;97054;-86
2022/12/18 03:07:04;;;;;;;35.33;17.23;;;;;;;-1.04;62.85;102014.19;4908659;28;96901;-86
2022/12/18 03:09:34;;;;;;;32.50;16.10;;;;;;;-1.05;62.49;102017.56;4920890;28;101703;-87
2022/12/18 03:12:31;;;;;;;40.87;17.87;;;;;;;-1.07;62.86;102016.66;4929484;28;101247;-86
2022/12/18 03:15:09;;;;;;;37.53;17.13;;;;;;;-1.11;62.90;102014.75;4890544;28;97196;-85
2022/12/18 03:17:39;;;;;;;39.87;18.67;;;;;;;-1.05;62.89;102020.13;4910634;28;96751;-88
2022/12/18 03:20:12;;;;;;;37.83;16.70;;;;;;;-1.11;62.72;102018.19;4909921;28;100624;-89
2022/12/18 03:22:38;;;;;;;33.83;15.53;;;;;;;-1.26;62.50;101994.38;4936228;28;101227;-89
2022/12/18 03:25:06;;;;;;;34.43;15.27;;;;;;;-1.17;62.83;102010.22;4906802;28;97650;-89
2022/12/18 03:27:36;;;;;;;35.77;16.00;;;;;;;-1.14;62.67;102033.53;4931315;28;97236;-89
2022/12/18 03:30:08;;;;;;;35.90;16.07;;;;;;;-1.20;62.41;102017.81;4910280;28;101465;-90
2022/12/18 03:32:45;;;;;;;35.40;15.87;;;;;;;-1.22;62.66;102004.88;4909579;28;102127;-90
2022/12/18 03:35:11;;;;;;;35.30;16.70;;;;;;;-1.36;62.63;101980.25;4904537;28;96760;-89
2022/12/18 03:37:37;;;;;;;35.37;16.80;;;;;;;-1.14;62.55;102023.22;4933569;28;97420;-88
2022/12/18 03:40:04;;;;;;;30.43;14.97;;;;;;;-1.10;62.22;102040.59;4928570;28;97485;-88
2022/12/18 03:42:52;;;;;;;34.40;16.17;;;;;;;-1.13;61.71;102035.31;4934817;28;101250;-88
2022/12/18 03:45:31;;;;;;;36.13;15.80;;;;;;;-1.33;61.92;101998.41;4935924;28;97148;-87
2022/12/18 03:48:27;;;;;;;37.70;16.47;;;;;;;-1.12;62.01;102036.19;4949569;28;97706;-90
2022/12/18 03:50:59;;;;;;;33.73;14.87;;;;;;;-1.16;62.12;102043.78;4948980;28;101244;-87
2022/12/18 03:53:32;;;;;;;35.70;16.20;;;;;;;-1.14;61.67;102049.00;4908519;28;101680;-88
2022/12/18 03:56:00;;;;;;;33.70;14.80;;;;;;;-1.16;62.45;102048.06;4938878;28;97335;-89
2022/12/18 03:58:32;;;;;;;37.75;16.98;;;;;;;-1.11;61.99;102049.13;4950519;28;96735;-89
2022/12/18 04:01:13;;;;;;;34.63;14.77;;;;;;;-1.09;62.08;102055.22;4917800;28;101240;-89
2022/12/18 04:03:39;;;;;;;33.60;15.93;;;;;;;-1.12;61.85;102051.66;4945984;28;101232;-88
2022/12/18 04:06:07;;;;;;;37.73;16.50;;;;;;;-1.11;61.63;102066.28;4914887;28;97578;-89
2022/12/18 04:08:34;;;;;;;39.67;17.30;;;;;;;-1.25;61.80;102074.34;4933619;28;96878;-88
2022/12/18 04:11:04;;;;;;;41.20;17.37;;;;;;;-1.34;62.58;102058.47;4949450;28;100303;-89
2022/12/18 04:13:33;;;;;;;38.27;17.17;;;;;;;-1.53;62.64;102025.03;4932916;28;100493;-90
2022/12/18 04:16:01;;;;;;;34.85;16.42;;;;;;;-1.32;62.19;102053.41;4920602;28;97425;-91
2022/12/18 04:18:27;;;;;;;34.07;17.07;;;;;;;-1.23;62.27;102062.38;4950198;28;98199;-89
2022/12/18 04:20:53;;;;;;;37.50;17.03;;;;;;;-1.22;61.94;102061.59;4918065;28;100744;-86
2022/12/18 04:23:19;;;;;;;35.03;17.63;;;;;;;-1.18;62.31;102068.63;4917056;28;102286;-87
2022/12/18 04:25:46;;;;;;;35.27;15.90;;;;;;;-1.21;61.89;102065.03;4933827;28;97061;-84
2022/12/18 04:28:16;;;;;;;40.80;17.35;;;;;;;-1.30;62.13;102062.09;4951022;28;96777;-89
2022/12/18 04:30:42;;;;;;;37.10;17.63;;;;;;;-1.35;61.56;102049.00;4932852;28;101955;-89
2022/12/18 04:33:12;;;;;;;39.80;18.10;;;;;;;-1.42;61.87;102085.63;4925387;28;101136;-87
2022/12/18 04:35:39;;;;;;;40.00;18.33;;;;;;;-1.63;62.28;102068.44;4938563;28;97653;-90
2022/12/18 04:38:06;;;;;;;39.57;17.33;;;;;;;-1.70;62.89;102055.22;4933825;28;97863;-89
2022/12/18 04:40:32;;;;;;;36.97;18.07;;;;;;;-1.65;62.96;102088.09;4915833;28;100146;-90
2022/12/18 04:42:58;;;;;;;39.77;16.40;;;;;;;-1.71;62.56;102085.25;4931651;28;101723;-90
2022/12/18 04:45:23;;;;;;;36.83;16.27;;;;;;;-1.76;62.75;102066.13;4950851;28;97494;-87
2022/12/18 04:47:49;;;;;;;40.20;16.73;;;;;;;-1.55;62.92;102091.06;4914600;28;97142;-86
2022/12/18 04:50:14;;;;;;;31.60;15.63;;;;;;;-1.53;62.76;102086.84;4928827;28;101133;-90
2022/12/18 04:52:39;;;;;;;35.80;16.03;;;;;;;-1.47;62.68;102088.00;4910064;28;101401;-88
2022/12/18 04:55:05;;;;;;;35.03;16.27;;;;;;;-1.44;61.77;102088.13;4930184;28;98443;-90
2022/12/18 04:57:31;;;;;;;38.43;17.20;;;;;;;-1.41;62.30;102108.88;4924517;28;96912;-88
2022/12/18 04:59:56;;;;;;;34.50;15.97;;;;;;;-1.54;61.72;102101.44;4924037;28;100469;-86
2022/12/18 05:02:22;;;;;;;35.17;16.77;;;;;;;-1.54;62.15;102096.28;4920107;28;100982;-91
2022/12/18 05:04:47;;;;;;;30.17;15.47;;;;;;;-1.42;61.59;102116.53;4931728;28;96791;-84
2022/12/18 05:07:13;;;;;;;33.13;15.40;;;;;;;-1.43;61.56;102110.47;4916627;28;96736;-90
2022/12/18 05:09:38;;;;;;;34.43;16.40;;;;;;;-1.49;61.15;102104.19;4909244;28;102022;-86
2022/12/18 05:12:04;;;;;;;36.03;15.63;;;;;;;-1.43;61.44;102117.34;4922274;28;101246;-89
2022/12/18 05:14:29;;;;;;;35.50;16.03;;;;;;;-1.55;61.60;102112.53;4918089;28;98240;-89
2022/12/18 05:16:55;;;;;;;33.13;15.90;;;;;;;-1.75;61.67;102093.63;4947768;28;97185;-89
2022/12/18 05:19:20;;;;;;;32.63;16.37;;;;;;;-1.55;61.21;102115.13;4931643;28;97539;-90
2022/12/18 05:21:46;;;;;;;36.27;17.47;;;;;;;-1.55;61.28;102120.25;4932102;28;100736;-86
2022/12/18 05:24:12;;;;;;;32.43;16.13;;;;;;;-1.50;61.60;102128.22;4910674;28;96868;-88
2022/12/18 05:26:37;;;;;;;33.63;17.07;;;;;;;-1.53;61.20;102108.34;4934728;28;97125;-88
2022/12/18 05:29:03;;;;;;;32.17;16.00;;;;;;;-1.46;61.63;102114.63;4915109;28;101806;-90
2022/12/18 05:31:28;;;;;;;37.47;18.23;;;;;;;-1.51;60.63;102121.28;4928640;28;101791;-88
2022/12/18 05:33:54;;;;;;;35.77;16.13;;;;;;;-1.62;61.58;102141.44;4938208;28;97353;-87
2022/12/18 05:36:19;;;;;;;32.67;16.87;;;;;;;-1.63;61.81;102140.56;4929694;28;96907;-86
2022/12/18 05:38:45;;;;;;;38.67;17.40;;;;;;;-1.79;61.96;102140.66;4932939;28;100626;-91
2022/12/18 05:41:10;;;;;;;37.73;16.73;;;;;;;-1.83;62.15;102128.47;4928345;28;99479;-89
2022/12/18 05:43:38;;;;;;;38.27;16.97;;;;;;;-1.67;61.69;102143.78;4933320;28;97319;-87
2022/12/18 05:46:08;;;;;;;35.67;18.53;;;;;;;-1.64;61.52;102151.63;4941068;28;97228;-86
2022/12/18 05:48:33;;;;;;;31.53;16.70;;;;;;;-1.68;61.60;102154.91;4921723;28;99408;-88
2022/12/18 05:51:07;;;;;;;41.43;18.80;;;;;;;-1.79;61.34;102125.22;4929361;28;97953;-88
2022/12/18 05:53:34;;;;;;;40.77;20.27;;;;;;;-1.60;61.45;102153.56;4920811;28;96908;-89
2022/12/18 05:56:01;;;;;;;42.03;20.57;;;;;;;-1.53;61.86;102164.13;4930503;28;96725;-88
2022/12/18 05:58:27;;;;;;;42.47;20.47;;;;;;;-1.66;60.58;102134.34;4915142;28;101313;-87
2022/12/18 06:00:52;;;;;;;37.27;19.53;;;;;;;-1.67;60.91;102160.94;4914273;28;99873;-89
2022/12/18 06:03:18;;;;;;;41.60;19.87;;;;;;;-1.82;61.71;102137.94;4918217;28;97098;-88
2022/12/18 06:05:44;;;;;;;42.47;20.90;;;;;;;-1.66;61.17;102170.41;4920342;28;97663;-89
2022/12/18 06:08:11;;;;;;;44.63;20.93;;;;;;;-1.67;61.27;102169.53;4930940;28;101044;-90
2022/12/18 06:10:37;;;;;;;42.00;20.97;;;;;;;-1.91;61.52;102168.44;4915698;28;100348;-89
2022/12/18 06:13:03;;;;;;;45.53;20.87;;;;;;;-1.98;62.24;102176.66;4914576;28;96869;-89
2022/12/18 06:15:28;;;;;;;50.57;23.13;;;;;;;-2.01;61.89;102163.66;4901124;28;97619;-87
2022/12/18 06:17:54;;;;;;;48.90;23.97;;;;;;;-1.92;62.33;102183.00;4913604;28;98352;-84
2022/12/18 06:20:20;;;;;;;50.70;23.97;;;;;;;-1.95;61.78;102176.81;4930423;28;97644;-87
2022/12/18 06:22:45;;;;;;;44.97;22.83;;;;;;;-2.06;62.58;102177.19;4915346;28;97238;-88
2022/12/18 06:25:11;;;;;;;48.70;22.83;;;;;;;-2.05;62.19;102178.06;4908371;28;97389;-88
2022/12/18 06:27:36;;;;;;;52.63;24.63;;;;;;;-2.11;62.17;102167.50;4943798;28;101447;-89
2022/12/18 06:30:03;;;;;;;85.20;35.53;;;;;;;-2.10;62.30;102190.72;4901179;28;100214;-89
2022/12/18 06:32:28;;;;;;;57.93;25.80;;;;;;;-2.25;62.04;102178.81;4946815;28;97188;-89
2022/12/18 06:34:55;;;;;;;56.73;25.20;;;;;;;-2.08;62.97;102203.66;4912028;28;97540;-87
2022/12/18 06:37:21;;;;;;;56.47;25.63;;;;;;;-1.98;62.32;102208.44;4964194;28;100596;-88
2022/12/18 06:39:46;;;;;;;54.17;25.17;;;;;;;-1.80;61.73;102212.66;4921128;28;101253;-87
2022/12/18 06:42:12;;;;;;;63.97;27.80;;;;;;;-1.92;62.08;102215.56;4931174;28;96768;-89
2022/12/18 06:44:37;;;;;;;52.53;26.40;;;;;;;-1.94;61.94;102212.06;4921477;28;96786;-90
2022/12/18 06:47:03;;;;;;;62.83;27.63;;;;;;;-1.98;61.91;102223.88;4946779;28;100130;-90
2022/12/18 06:49:29;;;;;;;51.33;24.40;;;;;;;-2.17;61.86;102218.69;4911111;28;99969;-89
2022/12/18 06:51:54;;;;;;;65.63;30.03;;;;;;;-2.19;62.73;102221.16;4936223;28;98240;-87
2022/12/18 06:54:20;;;;;;;61.43;25.73;;;;;;;-2.24;62.39;102226.88;4952616;28;97824;-86
2022/12/18 06:56:46;;;;;;;57.63;25.77;;;;;;;-2.37;62.91;102226.31;4934840;28;100013;-89
2022/12/18 06:59:12;;;;;;;60.67;26.93;;;;;;;-2.29;62.79;102229.25;4913798;28;101415;-88
2022/12/18 07:01:38;;;;;;;115.97;44.77;;;;;;;-2.35;62.30;102226.41;4914648;28;96982;-88
2022/12/18 07:04:03;;;;;;;120.57;46.53;;;;;;;-2.35;63.23;102226.41;4911707;28;97303;-89
2022/12/18 07:06:29;;;;;;;75.67;33.90;;;;;;;-2.36;62.83;102229.75;4925435;28;100723;-86
2022/12/18 07:08:55;;;;;;;51.60;26.50;;;;;;;-2.33;63.42;102220.53;4914126;28;100636;-87
2022/12/18 07:11:21;;;;;;;52.80;24.70;;;;;;;-2.21;62.75;102229.59;4894708;28;97644;-88
2022/12/18 07:13:46;;;;;;;49.57;23.77;;;;;;;-2.08;63.03;102237.13;4921995;28;98275;-90
2022/12/18 07:16:15;;;;;;;52.23;25.63;;;;;;;-1.94;61.72;102241.25;4915508;28;101111;-88
2022/12/18 07:18:41;;;;;;;41.30;22.83;;;;;;;-2.26;61.81;102247.41;4930021;28;98168;-88
2022/12/18 07:21:09;;;;;;;43.30;21.27;;;;;;;-2.52;62.50;102247.00;4914416;28;97143;-89
2022/12/18 07:23:35;;;;;;;44.60;21.70;;;;;;;-2.52;62.09;102256.41;4911303;28;97225;-84
2022/12/18 07:26:09;;;;;;;40.93;21.07;;;;;;;-2.52;62.36;102256.41;4945466;28;98093;-83
2022/12/18 07:28:35;;;;;;;38.20;19.60;;;;;;;-2.68;63.25;102228.16;4931990;28;100594;-84
2022/12/18 07:31:13;;;;;;;43.53;22.43;;;;;;;-2.62;62.22;102257.66;4959924;28;97366;-88
2022/12/18 07:33:39;;;;;;;46.50;21.63;;;;;;;-2.89;63.09;102261.38;4924742;28;97466;-86
2022/12/18 07:36:06;;;;;;;103.93;42.70;;;;;;;-2.94;63.82;102281.69;4899090;28;101292;-90
2022/12/18 07:38:32;;;;;;;62.53;29.43;;;;;;;-3.34;64.20;102224.78;4940072;28;100062;-90
2022/12/18 07:41:07;;;;;;;64.80;27.70;;;;;;;-3.05;64.29;102263.16;4914920;28;97277;-89
2022/12/18 07:43:33;;;;;;;61.80;29.07;;;;;;;-2.79;63.97;102271.34;4919371;28;97245;-88
2022/12/18 07:45:59;;;;;;;56.00;25.37;;;;;;;-2.72;63.11;102285.38;4914351;28;100578;-89
2022/12/18 07:48:25;;;;;;;45.73;21.67;;;;;;;-2.81;63.82;102285.78;4928449;28;100398;-85
2022/12/18 07:50:50;;;;;;;41.53;21.63;;;;;;;-2.69;62.98;102275.25;4917387;28;97340;-89
2022/12/18 07:53:16;;;;;;;61.63;28.67;;;;;;;-2.70;63.27;102282.09;4928810;28;96764;-89
2022/12/18 07:55:41;;;;;;;82.60;35.83;;;;;;;-2.82;63.47;102246.34;4914087;28;102838;-85
2022/12/18 07:58:07;;;;;;;42.87;22.43;;;;;;;-2.60;63.03;102265.44;4922676;28;98019;-87
2022/12/18 08:00:33;;;;;;;41.83;20.10;;;;;;;-2.57;63.36;102260.44;4910635;28;98377;-85
2022/12/18 08:02:59;;;;;;;75.70;34.20;;;;;;;-2.31;62.81;102295.19;4926239;28;96994;-88
2022/12/18 08:05:25;;;;;;;91.87;39.63;;;;;;;-2.51;62.40;102273.59;4926143;28;102267;-86
2022/12/18 08:07:51;;;;;;;50.13;24.37;;;;;;;-2.64;63.33;102296.94;4921326;28;100513;-87
2022/12/18 08:10:16;;;;;;;42.43;21.83;;;;;;;-2.70;63.31;102289.81;4911092;28;96781;-87
2022/12/18 08:12:42;;;;;;;67.30;30.30;;;;;;;-2.81;63.63;102286.66;4933297;28;97110;-89
2022/12/18 08:15:08;;;;;;;46.93;23.37;;;;;;;-2.80;63.57;102300.41;4926225;28;101433;-89
2022/12/18 08:17:34;;;;;;;45.40;22.70;;;;;;;-2.80;64.01;102306.41;4935339;28;100797;-89
2022/12/18 08:19:59;;;;;;;55.47;24.67;;;;;;;-2.70;63.32;102306.94;4931149;28;96736;-89
2022/12/18 08:22:25;;;;;;;60.10;27.67;;;;;;;-2.78;63.84;102314.22;4934713;28;97393;-86
2022/12/18 08:24:51;;;;;;;45.47;22.13;;;;;;;-2.81;63.63;102303.78;4918573;28;100238;-87
2022/12/18 08:27:16;;;;;;;43.50;22.10;;;;;;;-2.69;63.76;102319.84;4932944;28;100262;-88
2022/12/18 08:29:42;;;;;;;42.03;20.43;;;;;;;-2.68;63.48;102319.03;4921688;28;97411;-87
2022/12/18 08:32:07;;;;;;;48.27;21.90;;;;;;;-2.77;64.11;102310.84;4917809;28;96818;-88
2022/12/18 08:34:33;;;;;;;45.33;23.00;;;;;;;-2.62;63.88;102327.09;4955618;28;98102;-86
2022/12/18 08:36:58;;;;;;;43.13;21.37;;;;;;;-2.70;63.01;102320.66;4937034;28;100356;-87
2022/12/18 08:39:24;;;;;;;46.93;23.03;;;;;;;-2.71;63.51;102331.72;4929652;28;97351;-90
2022/12/18 08:44:40;;;;;;;39.47;19.17;;;;;;;-2.89;63.73;102312.78;4916989;28;98574;-88
2022/12/18 08:47:06;;;;;;;42.45;20.45;;;;;;;-2.73;64.16;102328.22;4944752;28;98054;-87
2022/12/18 08:49:32;;;;;;;42.23;19.77;;;;;;;-2.65;63.30;102336.31;4909869;28;96771;-87
2022/12/18 08:51:58;;;;;;;42.27;20.53;;;;;;;-2.87;63.24;102319.78;4934342;28;96805;-87
2022/12/18 08:54:24;;;;;;;40.60;20.77;;;;;;;-2.84;63.90;102345.63;4912237;28;101559;-84
2022/12/18 08:56:50;;;;;;;48.93;22.00;;;;;;;-2.89;63.63;102336.78;4938151;28;100257;-86
2022/12/18 08:59:17;;;;;;;47.70;23.13;;;;;;;-2.81;63.65;102335.50;4948255;28;96821;-85
2022/12/18 09:01:42;;;;;;;41.47;20.70;;;;;;;-2.71;63.53;102339.44;4904882;28;98486;-83
2022/12/18 09:04:09;;;;;;;43.87;20.90;;;;;;;-2.71;63.99;102343.69;4912171;28;101092;-83
2022/12/18 09:06:34;;;;;;;43.30;22.23;;;;;;;-2.61;63.57;102331.41;4943525;28;97318;-82
2022/12/18 09:09:00;;;;;;;44.27;21.43;;;;;;;-2.77;63.57;102340.00;4947523;28;96852;-83
2022/12/18 09:11:27;;;;;;;45.10;21.37;;;;;;;-2.68;63.78;102325.88;4923790;28;98026;-81
2022/12/18 09:13:54;;;;;;;41.47;21.03;;;;;;;-2.82;63.68;102297.78;4934370;28;97488;-82
2022/12/18 09:16:19;;;;;;;43.90;20.83;;;;;;;-2.58;63.51;102316.13;4935115;28;100928;-81
2022/12/18 09:18:46;;;;;;;40.37;20.23;;;;;;;-2.51;62.89;102313.06;4913133;28;97150;-83
2022/12/18 09:21:21;;;;;;;43.10;21.30;;;;;;;-2.43;63.02;102304.88;4936750;28;97067;-82
2022/12/18 09:23:54;;;;;;;43.20;20.37;;;;;;;-2.92;63.03;102274.94;4912331;28;101197;-82
2022/12/18 09:26:20;;;;;;;41.60;20.80;;;;;;;-2.77;63.71;102296.28;4927060;28;100249;-83
2022/12/18 09:28:46;;;;;;;48.67;20.60;;;;;;;-2.74;63.65;102296.44;4909083;28;97896;-81
2022/12/18 09:31:12;;;;;;;40.83;20.10;;;;;;;-2.55;63.48;102297.41;4930257;28;97219;-83
2022/12/18 09:33:38;;;;;;;42.90;22.73;;;;;;;-2.66;63.19;102285.69;4912598;28;101331;-83
2022/12/18 09:36:06;;;;;;;40.97;20.60;;;;;;;-2.86;64.03;102282.09;4917695;28;101563;-82
2022/12/18 09:38:33;;;;;;;40.30;20.13;;;;;;;-3.04;64.10;102267.47;4905483;28;97215;-84
2022/12/18 09:41:31;;;;;;;45.27;21.43;;;;;;;-2.70;64.36;102283.78;4931257;28;97529;-79
2022/12/18 09:44:01;;;;;;;41.77;21.70;;;;;;;-2.91;63.95;102283.53;4937929;28;101438;-77
2022/12/18 09:46:30;;;;;;;40.87;20.30;;;;;;;-2.96;63.84;102257.63;4914172;28;101053;-81
2022/12/18 09:49:00;;;;;;;48.30;21.60;;;;;;;-2.84;64.02;102254.78;4922480;28;97339;-79
2022/12/18 09:51:53;;;;;;;45.50;22.10;;;;;;;-2.59;63.67;102280.03;4945168;28;96837;-82
2022/12/18 09:54:22;;;;;;;51.43;23.00;;;;;;;-2.82;63.34;102279.78;4923205;28;101639;-80
2022/12/18 09:56:48;;;;;;;42.13;22.63;;;;;;;-3.15;64.99;102286.59;4929298;28;98102;-82
2022/12/18 09:59:36;;;;;;;45.67;21.47;;;;;;;-3.10;64.89;102272.31;4937110;28;97458;-83
2022/12/18 10:02:14;;;;;;;54.80;25.10;;;;;;;-3.19;64.80;102282.97;4944293;28;98021;-83
2022/12/18 10:04:40;;;;;;;55.13;24.57;;;;;;;-3.35;65.25;102287.22;4917940;28;97856;-82
2022/12/18 10:07:20;;;;;;;48.97;23.33;;;;;;;-3.23;65.31;102290.44;4927192;28;101028;-82
2022/12/18 10:10:10;;;;;;;52.97;24.27;;;;;;;-3.27;66.58;102296.22;4928509;28;97177;-81
2022/12/18 10:13:03;;;;;;;49.77;23.50;;;;;;;-3.26;66.72;102297.97;4902896;28;97362;-83
2022/12/18 10:15:43;;;;;;;46.50;21.47;;;;;;;-3.14;65.28;102293.50;4887091;28;101430;-83
2022/12/18 10:18:18;;;;;;;47.80;22.93;;;;;;;-2.99;64.76;102293.44;4935073;28;101015;-83
2022/12/18 10:20:47;;;;;;;47.53;21.83;;;;;;;-2.91;64.61;102279.28;4910163;28;98720;-82
2022/12/18 10:23:38;;;;;;;49.37;22.13;;;;;;;-2.79;64.96;102302.19;4906586;28;97440;-81
2022/12/18 10:26:06;;;;;;;46.97;22.23;;;;;;;-2.75;64.20;102298.97;4906837;28;101604;-82
2022/12/18 10:28:34;;;;;;;47.33;21.30;;;;;;;-2.67;64.73;102299.38;4923039;28;100356;-82
2022/12/18 10:31:00;;;;;;;53.53;23.70;;;;;;;-2.57;63.93;102310.19;4901587;28;96852;-80
2022/12/18 10:33:29;;;;;;;52.83;23.43;;;;;;;-2.70;64.07;102278.63;4902692;28;97460;-80
2022/12/18 10:35:55;;;;;;;51.20;23.37;;;;;;;-2.59;63.42;102291.25;4868322;28;101228;-75
2022/12/18 10:38:31;;;;;;;55.40;24.73;;;;;;;-2.84;64.01;102289.09;4912427;28;98307;-75
2022/12/18 10:41:00;;;;;;;56.83;25.30;;;;;;;-3.04;64.67;102302.56;4903447;28;98243;-74
2022/12/18 10:43:33;;;;;;;92.67;36.17;;;;;;;-3.15;65.54;102296.88;4905300;28;96932;-74
2022/12/18 10:46:07;;;;;;;95.23;35.10;;;;;;;-3.19;65.83;102293.25;4919039;28;102315;-74
2022/12/18 10:48:36;;;;;;;93.20;37.27;;;;;;;-3.24;66.10;102289.56;4916750;28;101773;-77
2022/12/18 10:51:02;;;;;;;70.07;28.97;;;;;;;-3.30;65.51;102288.34;4909490;28;97451;-76
2022/12/18 10:53:33;;;;;;;65.67;28.40;;;;;;;-3.45;65.98;102291.84;4885636;28;98179;-75
2022/12/18 10:55:58;;;;;;;64.70;29.63;;;;;;;-3.47;66.63;102308.84;4898278;28;99477;-77
2022/12/18 10:58:28;;;;;;;72.83;31.70;;;;;;;-3.61;67.25;102306.34;4889414;28;97347;-76
2022/12/18 11:01:16;;;;;;;59.03;25.83;;;;;;;-3.63;67.23;102303.69;4889668;28;97337;-76
2022/12/18 11:03:43;;;;;;;61.53;28.37;;;;;;;-3.51;67.96;102298.34;4873124;28;97157;-76
2022/12/18 11:06:11;;;;;;;59.93;26.10;;;;;;;-3.28;67.12;102294.47;4918392;28;101437;-77
2022/12/18 11:08:37;;;;;;;59.40;24.63;;;;;;;-3.17;65.34;102316.47;4901155;28;97551;-76
2022/12/18 11:11:06;;;;;;;48.67;24.83;;;;;;;-3.10;65.76;102313.41;4888254;28;98119;-77
2022/12/18 11:13:32;;;;;;;63.23;27.73;;;;;;;-3.22;65.88;102312.75;4917345;28;98723;-75
2022/12/18 11:15:58;;;;;;;47.13;20.90;;;;;;;-3.25;65.76;102298.06;4923465;28;97469;-82
2022/12/18 11:18:27;;;;;;;48.87;21.10;;;;;;;-3.05;65.49;102321.38;4922842;28;101298;-77
2022/12/18 11:20:58;;;;;;;48.80;21.70;;;;;;;-3.03;65.20;102317.19;4950893;28;97333;-84